Time;durP1;ratioP1;P1;durP2;ratioP2;P2;SDS_P1;SDS_P2;PMS_P1;PMS_P2;Temp;Humidity;BMP_temperature;BMP_pressure;BME280_temperature;BME280_humidity;BME280_pressure;Samples;Min_cycle;Max_cycle;Signal;HPM_P1;HPM_P2
2022/04/12 00:01:19;;;;;;;4.63;4.32;;;;;;;1.94;100.00;101267.59;5055533;28;20390;-79
2022/04/12 00:03:52;;;;;;;4.85;4.55;;;;;;;1.89;100.00;101270.06;5056106;28;20056;-79
2022/04/12 00:06:20;;;;;;;4.32;4.03;;;;;;;1.83;100.00;101269.06;5052568;28;20413;-80
2022/04/12 00:08:53;;;;;;;4.57;4.28;;;;;;;1.83;100.00;101263.69;5049213;28;20508;-78
2022/04/12 00:11:23;;;;;;;4.57;4.28;;;;;;;1.87;100.00;101262.22;5057194;28;20053;-80
2022/04/12 00:13:56;;;;;;;4.70;4.40;;;;;;;1.78;100.00;101261.63;5041751;28;20749;-79
2022/04/12 00:16:29;;;;;;;4.90;4.57;;;;;;;1.81;100.00;101265.72;5044862;28;20497;-79
2022/04/12 00:19:02;;;;;;;5.15;4.75;;;;;;;1.86;100.00;101264.09;5050275;28;20050;-80
2022/04/12 00:21:34;;;;;;;5.70;5.30;;;;;;;1.78;100.00;101264.31;5043443;28;20394;-79
2022/04/12 00:24:08;;;;;;;5.93;5.53;;;;;;;1.84;100.00;101260.78;5048735;28;20041;-80
2022/04/12 00:26:37;;;;;;;5.45;5.05;;;;;;;1.78;100.00;101264.31;5064485;28;20386;-79
2022/04/12 00:29:10;;;;;;;5.68;5.28;;;;;;;1.74;100.00;101268.44;5049509;28;20053;-80
2022/04/12 00:31:43;;;;;;;6.15;5.72;;;;;;;1.74;100.00;101260.38;5057852;28;20061;-81
2022/04/12 00:34:16;;;;;;;6.25;5.85;;;;;;;1.66;100.00;101250.69;5046054;28;20522;-79
2022/04/12 00:36:49;;;;;;;5.60;5.20;;;;;;;1.68;100.00;101259.34;5050660;28;20037;-79
2022/04/12 00:39:23;;;;;;;6.75;6.25;;;;;;;1.70;100.00;101262.66;5048333;28;20049;-79
2022/04/12 00:41:57;;;;;;;6.22;5.72;;;;;;;1.74;100.00;101263.06;5048339;28;20052;-79
2022/04/12 00:44:31;;;;;;;6.65;6.15;;;;;;;1.71;100.00;101263.47;5077277;28;20520;-80
2022/04/12 00:46:59;;;;;;;6.97;6.47;;;;;;;1.68;100.00;101256.66;5049083;28;20423;-79
2022/04/12 00:49:27;;;;;;;7.00;6.50;;;;;;;1.64;100.00;101260.81;5047018;28;20053;-79
2022/04/12 00:52:00;;;;;;;7.50;7.00;;;;;;;1.61;100.00;101253.16;5039942;28;20473;-79
2022/04/12 00:54:35;;;;;;;7.43;6.93;;;;;;;1.58;100.00;101253.56;5047804;28;20167;-79
2022/04/12 00:57:10;;;;;;;6.55;6.05;;;;;;;1.61;100.00;101255.81;5050293;28;20041;-78
2022/04/12 00:59:45;;;;;;;8.27;7.68;;;;;;;1.60;100.00;101248.00;5046004;28;20695;-78
2022/04/12 01:02:18;;;;;;;7.65;7.05;;;;;;;1.59;100.00;101254.38;5043068;28;20600;-78
2022/04/12 01:04:51;;;;;;;7.25;6.75;;;;;;;1.51;100.00;101242.00;5045834;28;20390;-79
2022/04/12 01:07:24;;;;;;;7.97;7.40;;;;;;;1.51;100.00;101263.47;5038546;28;20056;-78
2022/04/12 01:09:58;;;;;;;8.75;8.15;;;;;;;1.55;100.00;101250.47;5039437;28;20056;-79
2022/04/12 01:12:38;;;;;;;8.90;8.30;;;;;;;1.54;100.00;101249.63;5043413;28;20045;-78
2022/04/12 01:15:14;;;;;;;8.65;8.05;;;;;;;1.55;100.00;101237.03;5044653;28;20057;-79
2022/04/12 01:17:43;;;;;;;9.23;8.63;;;;;;;1.56;100.00;101236.03;5059299;28;20417;-78
2022/04/12 01:20:19;;;;;;;9.13;8.52;;;;;;;1.49;100.00;101226.13;5046080;28;20069;-78
2022/04/12 01:22:56;;;;;;;9.30;8.70;;;;;;;1.58;100.00;101237.47;5051728;28;20048;-77
2022/04/12 01:25:25;;;;;;;10.50;9.80;;;;;;;1.55;100.00;101237.03;5047475;28;20049;-79
2022/04/12 01:27:59;;;;;;;10.05;9.35;;;;;;;1.56;100.00;101231.50;5037457;28;20520;-78
2022/04/12 01:30:32;;;;;;;10.27;9.57;;;;;;;1.58;100.00;101231.28;5056104;28;20040;-78
2022/04/12 01:33:06;;;;;;;10.98;10.27;;;;;;;1.46;100.00;101223.84;5060007;28;20049;-78
2022/04/12 01:35:39;;;;;;;11.73;10.95;;;;;;;1.58;100.00;101218.69;5045329;28;20056;-79
2022/04/12 01:38:12;;;;;;;12.88;12.07;;;;;;;1.66;100.00;101217.66;5044482;28;20055;-79
2022/04/12 01:40:47;;;;;;;11.80;11.00;;;;;;;1.86;100.00;101214.94;5043438;28;20049;-78
2022/04/12 01:43:20;;;;;;;12.02;11.23;;;;;;;1.84;100.00;101207.09;5052701;28;20045;-78
2022/04/12 01:45:53;;;;;;;12.90;12.10;;;;;;;1.83;100.00;101208.13;5052311;28;20052;-78
2022/04/12 01:48:21;;;;;;;14.30;13.40;;;;;;;1.93;100.00;101193.47;5047505;28;20478;-78
2022/04/12 01:50:54;;;;;;;13.45;12.57;;;;;;;1.91;100.00;101191.00;5046153;28;20385;-78
2022/04/12 01:53:22;;;;;;;12.98;12.18;;;;;;;2.08;100.00;101198.59;5042406;28;20056;-77
2022/04/12 01:55:57;;;;;;;11.98;11.18;;;;;;;2.07;100.00;101197.75;5050210;28;20088;-78
2022/04/12 01:58:25;;;;;;;12.20;11.40;;;;;;;1.92;100.00;101198.03;5058794;28;20060;-79
2022/04/12 02:00:53;;;;;;;13.15;12.35;;;;;;;1.89;100.00;101201.09;5060234;28;20059;-77
2022/04/12 02:03:26;;;;;;;13.50;12.68;;;;;;;1.95;100.00;101194.91;5049803;28;20041;-79
2022/04/12 02:05:59;;;;;;;12.88;12.07;;;;;;;1.97;100.00;101189.34;5054608;28;20041;-78
2022/04/12 02:08:32;;;;;;;13.00;12.20;;;;;;;1.97;100.00;101192.00;5051782;28;20693;-78
2022/04/12 02:11:07;;;;;;;13.40;12.60;;;;;;;1.87;100.00;101193.25;5044324;28;20037;-78
2022/04/12 02:13:35;;;;;;;13.43;12.63;;;;;;;1.96;100.00;101187.66;5044345;28;20052;-79
2022/04/12 02:16:08;;;;;;;12.50;11.70;;;;;;;1.97;100.00;101186.66;5045368;28;20061;-78
2022/04/12 02:18:41;;;;;;;12.70;11.90;;;;;;;1.92;100.00;101187.28;5046652;28;20048;-78
2022/04/12 02:21:14;;;;;;;13.23;12.43;;;;;;;2.06;100.00;101192.59;5042916;28;20520;-79
2022/04/12 02:23:47;;;;;;;12.25;11.45;;;;;;;1.88;100.00;101188.75;5044481;28;20064;-78
2022/04/12 02:26:22;;;;;;;13.40;12.57;;;;;;;1.82;100.00;101194.94;5046982;28;20053;-77
2022/04/12 02:28:55;;;;;;;13.90;13.00;;;;;;;1.79;100.00;101193.47;5049423;28;20496;-79
2022/04/12 02:31:28;;;;;;;11.60;10.85;;;;;;;1.76;100.00;101190.41;5043321;28;20064;-79
2022/04/12 02:34:01;;;;;;;12.68;11.88;;;;;;;1.80;100.00;101184.41;5053876;28;20049;-79
2022/04/12 02:36:34;;;;;;;13.25;12.45;;;;;;;1.74;100.00;101189.78;5041552;28;20131;-78
2022/04/12 02:39:07;;;;;;;14.02;13.13;;;;;;;1.69;100.00;101182.38;5039912;28;20057;-78
2022/04/12 02:41:41;;;;;;;15.07;14.18;;;;;;;1.72;100.00;101184.63;5043980;28;20048;-78
2022/04/12 02:44:15;;;;;;;13.45;12.63;;;;;;;1.69;100.00;101183.19;5040671;28;20060;-79
2022/04/12 02:46:43;;;;;;;15.60;14.65;;;;;;;1.68;100.00;101186.06;5044185;28;20049;-78
2022/04/12 02:49:16;;;;;;;15.27;14.38;;;;;;;1.72;100.00;101179.25;5047738;28;20056;-78
2022/04/12 02:51:45;;;;;;;15.57;14.63;;;;;;;1.73;100.00;101174.69;5041406;28;20242;-78
2022/04/12 02:54:14;;;;;;;15.52;14.57;;;;;;;1.68;100.00;101181.53;5038482;28;20042;-79
2022/04/12 02:56:44;;;;;;;15.35;14.45;;;;;;;1.65;100.00;101171.22;5040512;28;20045;-78
2022/04/12 02:59:17;;;;;;;15.98;14.98;;;;;;;1.63;100.00;101159.03;5047159;28;20053;-78
2022/04/12 03:01:50;;;;;;;16.02;15.02;;;;;;;1.63;100.00;101157.19;5046249;28;20061;-79
2022/04/12 03:04:18;;;;;;;17.63;16.58;;;;;;;1.62;100.00;101154.72;5048932;28;20053;-78
2022/04/12 03:06:51;;;;;;;17.27;16.27;;;;;;;1.65;100.00;101159.66;5045962;28;20048;-78
2022/04/12 03:09:20;;;;;;;18.88;17.77;;;;;;;1.59;100.00;101153.28;5043720;28;20052;-79
2022/04/12 03:11:54;;;;;;;19.17;18.08;;;;;;;1.60;100.00;101160.31;5046008;28;20041;-79
2022/04/12 03:14:27;;;;;;;18.10;17.00;;;;;;;1.65;100.00;101163.16;5050245;28;20056;-77
2022/04/12 03:17:00;;;;;;;18.45;17.35;;;;;;;1.64;100.00;101156.16;5040422;28;20053;-79
2022/04/12 03:19:29;;;;;;;18.92;17.83;;;;;;;1.52;100.00;101144.41;5046285;28;20056;-78
2022/04/12 03:22:02;;;;;;;19.25;18.15;;;;;;;1.61;100.00;101156.56;5050319;28;20053;-79
2022/04/12 03:24:31;;;;;;;20.55;19.35;;;;;;;1.63;100.00;101159.03;5046429;28;20045;-79
2022/04/12 03:27:00;;;;;;;18.80;17.70;;;;;;;1.67;100.00;101160.25;5046933;28;20049;-78
2022/04/12 03:29:35;;;;;;;19.25;18.15;;;;;;;1.65;100.00;101159.66;5049357;28;20053;-78
2022/04/12 03:32:03;;;;;;;19.33;18.23;;;;;;;1.66;100.00;101172.88;5050958;28;20056;-78
2022/04/12 03:34:39;;;;;;;19.55;18.45;;;;;;;1.60;100.00;101162.97;5047291;28;20070;-77
2022/04/12 03:37:07;;;;;;;19.10;18.00;;;;;;;1.59;100.00;101180.09;5044377;28;20056;-79
2022/04/12 03:39:42;;;;;;;18.38;17.27;;;;;;;1.56;100.00;101169.78;5041004;28;20052;-78
2022/04/12 03:42:12;;;;;;;19.20;18.10;;;;;;;1.53;100.00;101164.81;5047999;28;20049;-78
2022/04/12 03:44:46;;;;;;;18.25;17.15;;;;;;;1.49;100.00;101158.22;5049514;28;20075;-79
2022/04/12 03:47:19;;;;;;;19.17;18.08;;;;;;;1.55;100.00;101176.19;5049267;28;20045;-78
2022/04/12 03:49:52;;;;;;;20.58;19.38;;;;;;;1.55;100.00;101176.19;5040730;28;20041;-78
2022/04/12 03:52:20;;;;;;;19.20;18.10;;;;;;;1.51;100.00;101173.09;5047823;28;20049;-78
2022/04/12 03:54:54;;;;;;;19.35;18.25;;;;;;;1.50;100.00;101171.44;5054076;28;20037;-79
2022/04/12 03:57:28;;;;;;;18.98;17.88;;;;;;;1.48;100.00;101178.06;5040745;28;20096;-79
2022/04/12 03:59:56;;;;;;;17.75;16.70;;;;;;;1.47;100.00;101171.84;5050800;28;20037;-79
2022/04/12 04:02:25;;;;;;;20.85;19.65;;;;;;;1.45;100.00;101165.03;5037442;28;20056;-78
2022/04/12 04:04:58;;;;;;;20.17;18.98;;;;;;;1.50;100.00;101175.97;5039540;28;20048;-78
2022/04/12 04:07:31;;;;;;;20.15;18.95;;;;;;;1.47;100.00;101177.22;5046598;28;20048;-79
2022/04/12 04:10:05;;;;;;;19.92;18.77;;;;;;;1.50;100.00;101181.34;5051607;28;20037;-78
2022/04/12 04:12:34;;;;;;;20.33;19.13;;;;;;;1.50;100.00;101171.44;5048165;28;20405;-78
2022/04/12 04:15:12;;;;;;;20.25;19.05;;;;;;;1.48;100.00;101180.75;5053048;28;20052;-78
2022/04/12 04:17:47;;;;;;;20.83;19.63;;;;;;;1.47;100.00;101179.88;5058392;28;20040;-78
2022/04/12 04:20:20;;;;;;;22.92;21.63;;;;;;;1.47;100.00;101174.53;5049400;28;20486;-78
2022/04/12 04:22:53;;;;;;;18.88;17.77;;;;;;;1.45;100.00;101179.28;5043297;28;20041;-78
2022/04/12 04:25:26;;;;;;;21.10;19.90;;;;;;;1.44;100.00;101176.81;5041854;28;20074;-79
2022/04/12 04:27:56;;;;;;;19.92;18.73;;;;;;;1.40;100.00;101179.06;5060213;28;20504;-79
2022/04/12 04:30:32;;;;;;;21.73;20.50;;;;;;;1.36;100.00;101175.16;5052220;28;20061;-78
2022/04/12 04:33:07;;;;;;;22.30;21.00;;;;;;;1.40;100.00;101170.22;5050077;28;20464;-78
2022/04/12 04:35:40;;;;;;;23.15;21.85;;;;;;;1.41;100.00;101174.53;5045367;28;20037;-78
2022/04/12 04:38:13;;;;;;;22.60;21.30;;;;;;;1.35;100.00;101165.44;5046910;28;20049;-78
2022/04/12 04:40:42;;;;;;;23.60;22.30;;;;;;;1.42;100.00;101174.31;5046099;28;20037;-79
2022/04/12 04:43:17;;;;;;;25.02;23.63;;;;;;;1.43;100.00;101178.66;5051256;28;20402;-78
2022/04/12 04:45:50;;;;;;;24.98;23.58;;;;;;;1.47;100.00;101179.88;5058109;28;20044;-78
2022/04/12 04:48:23;;;;;;;25.88;24.42;;;;;;;1.51;100.00;101177.63;5052571;28;20056;-78
2022/04/12 04:50:56;;;;;;;24.90;23.50;;;;;;;1.55;100.00;101183.38;5049316;28;20061;-78
2022/04/12 04:53:29;;;;;;;25.35;23.95;;;;;;;1.60;100.00;101184.44;5051765;28;20068;-79
2022/04/12 04:56:02;;;;;;;26.10;24.60;;;;;;;1.66;100.00;101182.78;5047441;28;20038;-78
2022/04/12 04:58:32;;;;;;;25.02;23.63;;;;;;;1.70;100.00;101178.66;5042920;28;20053;-78
2022/04/12 05:01:05;;;;;;;26.90;25.40;;;;;;;1.70;100.00;101179.47;5046322;28;20052;-78
2022/04/12 05:03:33;;;;;;;25.30;23.90;;;;;;;1.78;100.00;101183.81;5049570;28;20052;-78
2022/04/12 05:06:06;;;;;;;27.15;25.65;;;;;;;1.87;100.00;101179.84;5046909;28;20049;-78
2022/04/12 05:08:39;;;;;;;28.42;26.83;;;;;;;1.93;100.00;101177.38;5047478;28;20055;-78
2022/04/12 05:11:12;;;;;;;27.40;25.90;;;;;;;2.21;100.00;101179.78;5039181;28;20045;-79
2022/04/12 05:13:46;;;;;;;23.23;21.92;;;;;;;2.43;100.00;101176.78;5048461;28;20056;-78
2022/04/12 05:16:19;;;;;;;22.27;20.98;;;;;;;2.31;100.00;101179.31;5051456;28;20041;-79
2022/04/12 05:18:53;;;;;;;19.17;18.08;;;;;;;2.29;100.00;101170.66;5045762;28;20049;-79
2022/04/12 05:21:21;;;;;;;15.88;14.88;;;;;;;2.32;100.00;101178.28;5043136;28;20055;-79
2022/04/12 05:23:54;;;;;;;15.90;14.90;;;;;;;2.42;100.00;101180.50;5046279;28;20556;-78
2022/04/12 05:26:22;;;;;;;15.60;14.68;;;;;;;2.46;100.00;101187.09;5046554;28;20036;-78
2022/04/12 05:28:56;;;;;;;15.48;14.55;;;;;;;2.54;100.00;101193.06;5053828;28;20045;-78
2022/04/12 05:31:29;;;;;;;15.40;14.48;;;;;;;2.54;100.00;101189.53;5054036;28;20052;-78
2022/04/12 05:34:03;;;;;;;15.07;14.18;;;;;;;2.64;100.00;101197.19;5064569;28;20426;-78
2022/04/12 05:36:36;;;;;;;14.68;13.77;;;;;;;2.76;100.00;101197.31;5043449;28;20048;-79
2022/04/12 05:39:09;;;;;;;14.48;13.57;;;;;;;2.83;100.00;101192.72;5041532;28;20053;-79
2022/04/12 05:41:42;;;;;;;13.95;13.05;;;;;;;2.87;100.00;101193.94;5047044;28;20052;-78
2022/04/12 05:44:16;;;;;;;14.02;13.13;;;;;;;2.95;100.00;101200.94;5056939;28;20048;-78
2022/04/12 05:46:49;;;;;;;14.50;13.60;;;;;;;2.99;100.00;101202.13;5050966;28;20056;-79
2022/04/12 05:49:18;;;;;;;13.38;12.57;;;;;;;3.09;100.00;101201.66;5047244;28;20049;-79
2022/04/12 05:51:51;;;;;;;13.02;12.23;;;;;;;3.16;100.00;101210.50;5043281;28;20045;-78
2022/04/12 05:54:24;;;;;;;12.27;11.48;;;;;;;3.17;100.00;101207.59;5042731;28;20509;-80
2022/04/12 05:56:58;;;;;;;11.13;10.43;;;;;;;3.29;100.00;101209.59;5046635;28;20048;-78
2022/04/12 05:59:27;;;;;;;11.63;10.82;;;;;;;3.40;100.00;101206.22;5051089;28;20037;-79
2022/04/12 06:02:00;;;;;;;10.90;10.20;;;;;;;3.44;100.00;101201.19;5047562;28;20041;-78
2022/04/12 06:04:33;;;;;;;10.48;9.77;;;;;;;3.52;100.00;101220.59;5041907;28;20049;-78
2022/04/12 06:07:01;;;;;;;9.77;9.07;;;;;;;3.55;100.00;101214.78;5046288;28;20053;-78
2022/04/12 06:09:34;;;;;;;9.75;9.05;;;;;;;3.58;100.00;101225.09;5040286;28;20047;-79
2022/04/12 06:12:09;;;;;;;8.15;7.55;;;;;;;3.75;100.00;101232.63;5051210;28;20056;-79
2022/04/12 06:14:38;;;;;;;;;;;;;;;3.79;100.00;101233.00;5045769;28;20049;-77
2022/04/12 06:17:11;;;;;;;;;;;;;;;4.01;100.00;101233.41;5038479;28;19924;-77
2022/04/12 06:19:39;;;;;;;;;;;;;;;3.94;100.00;101225.41;5045074;28;20489;-76
2022/04/12 06:22:07;;;;;;;;;;;;;;;3.99;100.00;101232.81;5046770;28;19932;-76
2022/04/12 06:24:35;;;;;;;;;;;;;;;4.09;100.00;101239.34;5046724;28;19920;-76
2022/04/12 06:27:08;;;;;;;;;;;;;;;4.09;100.00;101238.53;5040840;28;20368;-77
2022/04/12 06:29:42;;;;;;;;;;;;;;;4.19;100.00;101244.22;5038675;28;20451;-77
2022/04/12 06:32:15;;;;;;;;;;;;;;;4.29;100.00;101237.50;5058370;28;19921;-76
2022/04/12 06:34:47;;;;;;;;;;;;;;;4.32;100.00;101245.94;5043453;28;19927;-77
2022/04/12 06:37:23;;;;;;;;;;;;;;;4.46;100.00;101240.41;5037217;28;19921;-77
2022/04/12 06:39:57;;;;;;;;;;;;;;;4.58;100.00;101244.81;5045868;28;20293;-77
2022/04/12 06:42:30;;;;;;;;;;;;;;;4.66;100.00;101240.16;5042338;28;19925;-78
2022/04/12 06:45:05;;;;;;;;;;;;;;;4.66;100.00;101235.59;5032410;28;19929;-77
2022/04/12 06:47:37;;;;;;;;;;;;;;;4.76;100.00;101235.91;5025581;28;19935;-76
2022/04/12 06:50:11;;;;;;;;;;;;;;;4.90;100.00;101231.16;5025316;28;19936;-78
2022/04/12 06:52:44;;;;;;;;;;;;;;;4.78;100.00;101216.78;5029604;28;19936;-78
2022/04/12 06:55:17;;;;;;;;;;;;;;;4.71;100.00;101216.88;5025273;28;19928;-78
2022/04/12 06:57:50;;;;;;;;;;;;;;;4.83;100.00;101210.69;5027827;28;20285;-77
2022/04/12 07:00:25;;;;;;;;;;;;;;;5.00;100.00;101210.88;5025471;28;20308;-76
2022/04/12 07:02:58;;;;;;;;;;;;;;;5.10;100.00;101216.56;5025948;28;19929;-78
2022/04/12 07:05:31;;;;;;;;;;;;;;;5.23;100.00;101212.81;5020468;28;19928;-78
2022/04/12 07:08:05;;;;;;;;;;;;;;;5.35;100.00;101212.88;5024948;28;19924;-79
2022/04/12 07:10:38;;;;;;;;;;;;;;;5.43;100.00;101217.94;5041214;28;19935;-78
2022/04/12 07:13:06;;;;;;;;;;;;;;;5.48;100.00;101218.03;5031707;28;19925;-77
2022/04/12 07:15:35;;;;;;;;;;;;;;;5.53;100.00;101211.94;5038330;28;20395;-77
2022/04/12 07:18:08;;;;;;;;;;;;;;;5.77;100.00;101213.63;5025628;28;19929;-79
2022/04/12 07:20:41;;;;;;;;;;;;;;;5.81;100.00;101213.94;5027198;28;19929;-77
2022/04/12 07:23:09;;;;;;;;;;;;;;;5.82;100.00;101198.59;5020927;28;19929;-79
2022/04/12 07:25:41;;;;;;;;;;;;;;;5.90;100.00;101203.63;5023941;28;19929;-78
2022/04/12 07:28:14;;;;;;;;;;;;;;;5.96;100.00;101211.59;5017708;28;19928;-78
2022/04/12 07:30:48;;;;;;;;;;;;;;;5.98;100.00;101202.47;5036033;28;20416;-79
2022/04/12 07:33:17;;;;;;;;;;;;;;;5.94;100.00;101202.09;5017854;28;20644;-76
2022/04/12 07:35:46;;;;;;;;;;;;;;;6.02;100.00;101198.22;5019854;28;20483;-75
2022/04/12 07:38:14;;;;;;;;;;;;;;;6.11;100.00;101194.13;5034556;28;19929;-76
2022/04/12 07:40:47;;;;;;;;;;;;;;;6.10;100.00;101200.56;5022589;28;19929;-78
2022/04/12 07:43:20;;;;;;;;;;;;;;;6.26;100.00;101199.03;5029289;28;19932;-78
2022/04/12 07:45:54;;;;;;;;;;;;;;;6.42;100.00;101210.97;5055905;28;19925;-78
2022/04/12 07:48:27;;;;;;;;;;;;;;;6.47;100.00;101211.09;5026575;28;19928;-78
2022/04/12 07:51:00;;;;;;;;;;;;;;;6.57;100.00;101211.31;5026906;28;19928;-76
2022/04/12 07:53:28;;;;;;;;;;;;;;;6.73;100.00;101217.81;5024205;28;19928;-78
2022/04/12 07:56:01;;;;;;;;;;;;;;;6.70;100.00;101223.72;5018191;28;19925;-77
2022/04/12 07:58:34;;;;;;;;;;;;;;;6.79;100.00;101237.69;5010531;28;19928;-78
2022/04/12 08:01:04;;;;;;;;;;;;;;;6.89;100.00;101234.34;5017793;28;19942;-78
2022/04/12 08:03:39;;;;;;;;;;;;;;;6.97;100.00;101236.66;5031346;28;19924;-76
2022/04/12 08:06:12;;;;;;;;;;;;;;;7.11;100.00;101234.50;5018785;28;19929;-76
2022/04/12 08:08:45;;;;;;;;;;;;;;;7.16;100.00;101231.88;5019806;28;19929;-78
2022/04/12 08:11:18;;;;;;;;;;;;;;;7.28;100.00;101227.22;5024882;28;19936;-78
2022/04/12 08:13:51;;;;;;;;;;;;;;;7.43;100.00;101228.53;5025290;28;20679;-76
2022/04/12 08:16:25;;;;;;;;;;;;;;;7.44;100.00;101222.06;5024474;28;19924;-77
2022/04/12 08:18:58;;;;;;;;;;;;;;;7.54;100.00;101224.13;5031089;28;20665;-77
2022/04/12 08:21:34;;;;;;;;;;;;;;;7.62;100.00;101223.72;5020102;28;19955;-78
2022/04/12 08:24:02;;;;;;;;;;;;;;;7.75;100.00;101230.69;5021177;28;19929;-78
2022/04/12 08:26:34;;;;;;;;;;;;;;;7.80;100.00;101228.06;5025327;28;19929;-76
2022/04/12 08:29:07;;;;;;;;;;;;;;;7.92;100.00;101231.50;5022319;28;19935;-77
2022/04/12 08:31:37;;;;;;;;;;;;;;;8.06;100.00;101231.16;5028003;28;21561;-78
2022/04/12 08:34:10;;;;;;;;;;;;;;;8.13;100.00;101227.19;5021678;28;19929;-78
2022/04/12 08:36:42;;;;;;;;;;;;;;;8.28;100.00;101223.03;5025355;28;19928;-78
2022/04/12 08:39:13;;;;;;;;;;;;;;;8.31;100.00;101223.38;5023080;28;19929;-77
2022/04/12 08:41:46;;;;;;;;;;;;;;;8.45;100.00;101229.28;5028549;28;19929;-78
2022/04/12 08:44:19;;;;;;;;;;;;;;;8.61;100.00;101214.00;5053200;28;19931;-76
2022/04/12 08:46:56;;;;;;;;;;;;;;;8.65;100.00;101223.25;5019451;28;19936;-77
2022/04/12 08:49:29;;;;;;;;;;;;;;;8.83;100.00;101216.69;5024940;28;19929;-76
2022/04/12 08:52:02;;;;;;;;;;;;;;;8.93;100.00;101218.69;5026367;28;21287;-77
2022/04/12 08:54:32;;;;;;;;;;;;;;;8.83;100.00;101205.81;5019954;28;19929;-75
2022/04/12 08:57:05;;;;;;;;;;;;;;;9.13;100.00;101219.97;5020968;28;19929;-78
2022/04/12 08:59:38;;;;;;;;;;;;;;;9.23;100.00;101216.53;5023019;28;20265;-78
2022/04/12 09:02:12;;;;;;;;;;;;;;;9.25;100.00;101196.16;5020302;28;19921;-76
2022/04/12 09:04:40;;;;;;;;;;;;;;;9.32;100.00;101204.94;5022589;28;20594;-76
2022/04/12 09:07:13;;;;;;;;;;;;;;;9.28;100.00;101198.41;5020326;28;20590;-78
2022/04/12 09:09:46;;;;;;;;;;;;;;;9.25;100.00;101190.75;5025792;28;19935;-77
2022/04/12 09:12:19;;;;;;;;;;;;;;;9.38;100.00;101189.50;5020604;28;19936;-77
2022/04/12 09:14:54;;;;;;;;;;;;;;;9.49;100.00;101182.25;5025844;28;19928;-78
2022/04/12 09:17:30;;;;;;;;;;;;;;;9.50;100.00;101181.16;5018841;28;19939;-78
2022/04/12 09:20:03;;;;;;;;;;;;;;;9.60;100.00;101185.84;5016707;28;20857;-77
2022/04/12 09:22:37;;;;;;;;;;;;;;;9.68;100.00;101169.91;5037985;28;19936;-79
2022/04/12 09:25:11;;;;;;;;;;;;;;;9.75;100.00;101177.81;5023498;28;19944;-78
2022/04/12 09:27:49;;;;;;;;;;;;;;;9.87;100.00;101172.19;5016830;28;19936;-78
2022/04/12 09:30:22;;;;;;;;;;;;;;;9.87;100.00;101175.72;5017133;28;19929;-78
2022/04/12 09:32:56;;;;;;;;;;;;;;;10.00;100.00;101163.56;5021092;28;19935;-77
2022/04/12 09:35:29;;;;;;;;;;;;;;;10.15;100.00;101161.97;5022228;28;19929;-77
2022/04/12 09:38:02;;;;;;;;;;;;;;;10.28;100.00;101166.13;5024551;28;19929;-78
2022/04/12 09:40:35;;;;;;;;;;;;;;;10.45;100.00;101155.88;5020740;28;19936;-76
2022/04/12 09:43:11;;;;;;;;;;;;;;;10.64;100.00;101167.09;5023845;28;19925;-78
2022/04/12 09:45:44;;;;;;;;;;;;;;;10.67;100.00;101166.53;5014544;28;20609;-78
2022/04/12 09:48:15;;;;;;;;;;;;;;;10.80;100.00;101158.97;5023727;28;19951;-76
2022/04/12 09:50:50;;;;;;;;;;;;;;;10.69;93.69;101164.38;5022508;28;19936;-79
2022/04/12 09:53:36;;;;;;;;;;;;;;;10.71;84.48;101153.22;5026719;28;19929;-78
2022/04/12 09:56:17;;;;;;;;;;;;;;;10.72;100.00;101152.16;5021541;28;19929;-78
2022/04/12 09:58:50;;;;;;;;;;;;;;;10.87;100.00;101154.91;5018155;28;19936;-78
2022/04/12 10:01:20;;;;;;;;;;;;;;;10.82;100.00;101151.34;5022796;28;20619;-77
2022/04/12 10:03:55;;;;;;;;;;;;;;;10.95;90.07;101145.38;5031430;28;19936;-78
2022/04/12 10:06:28;;;;;;;;;;;;;;;10.94;99.93;101138.31;5017388;28;19931;-77
2022/04/12 10:09:02;;;;;;;;;;;;;;;10.96;87.84;101127.13;5020357;28;19928;-78
2022/04/12 10:11:30;;;;;;;;;;;;;;;10.89;83.15;101132.84;5025398;28;19928;-77
2022/04/12 10:14:02;;;;;;;;;;;;;;;11.05;84.58;101130.97;5020537;28;20416;-77
2022/04/12 10:16:35;;;;;;;;;;;;;;;11.25;88.20;101123.88;5020270;28;19935;-78
2022/04/12 10:19:10;;;;;;;;;;;;;;;11.52;86.35;101124.38;5020209;28;19932;-77
2022/04/12 10:21:43;;;;;;;;;;;;;;;11.74;92.44;101123.25;5016361;28;19925;-77
2022/04/12 10:24:12;;;;;;;;;;;;;;;11.85;97.35;101124.84;5018910;28;20393;-78
2022/04/12 10:26:46;;;;;;;;;;;;;;;11.84;85.72;101115.03;5015922;28;19929;-79
2022/04/12 10:29:19;;;;;;;;;;;;;;;11.72;88.11;101114.50;5019857;28;19928;-77
2022/04/12 10:31:55;;;;;;;;;;;;;;;11.81;80.50;101118.31;5020884;28;21654;-78
2022/04/12 10:34:25;;;;;;;;;;;;;;;11.72;80.16;101101.72;5031462;28;19932;-78
2022/04/12 10:37:04;;;;;;;;;;;;;;;11.82;78.54;101111.78;5013050;28;19929;-78
2022/04/12 10:39:33;;;;;;;;;;;;;;;11.82;73.88;101114.50;5014379;28;19929;-78
2022/04/12 10:42:08;;;;;;;;;;;;;;;11.96;78.81;101117.47;5027230;28;20377;-79
2022/04/12 10:44:42;;;;;;;;;;;;;;;12.01;75.74;101109.25;5011606;28;20312;-78
2022/04/12 10:47:28;;;;;;;;;;;;;;;12.07;78.95;101113.63;4999326;28;20475;-78
2022/04/12 10:50:04;;;;;;;;;;;;;;;12.15;76.58;101111.41;5026551;28;19928;-78
2022/04/12 10:52:36;;;;;;;;;;;;;;;12.20;75.79;101097.75;5017081;28;19940;-77
2022/04/12 10:55:11;;;;;;;0.50;0.50;;;;;;;12.47;86.57;101104.69;5019451;28;19935;-78
2022/04/12 10:57:45;;;;;;;0.50;0.50;;;;;;;12.62;86.33;101090.13;5019099;28;20064;-77
2022/04/12 11:00:20;;;;;;;0.43;0.43;;;;;;;12.83;86.20;101090.78;5019798;28;20832;-77
2022/04/12 11:02:55;;;;;;;0.40;0.40;;;;;;;12.59;67.61;101081.41;5022813;28;20083;-76
2022/04/12 11:06:05;;;;;;;0.50;0.50;;;;;;;12.78;73.57;101069.78;5018280;28;20057;-78
2022/04/12 11:08:49;;;;;;;0.50;0.50;;;;;;;12.93;69.19;101069.66;5019756;28;20976;-77
2022/04/12 11:11:26;;;;;;;0.40;0.40;;;;;;;12.79;69.21;101065.97;5025641;28;20686;-77
2022/04/12 11:14:23;;;;;;;1.52;0.50;;;;;;;12.60;60.34;101068.56;5019964;28;20056;-76
2022/04/12 11:17:00;;;;;;;0.52;0.52;;;;;;;12.74;62.78;101060.53;5019981;28;20081;-77
2022/04/12 11:19:43;;;;;;;0.40;0.40;;;;;;;12.96;70.39;101062.81;5019828;28;20052;-78
2022/04/12 11:22:20;;;;;;;0.50;0.50;;;;;;;12.99;65.09;101055.97;5024038;28;20062;-76
2022/04/12 11:25:14;;;;;;;0.40;0.40;;;;;;;13.21;71.96;101055.50;5019651;28;20829;-78
2022/04/12 11:27:55;;;;;;;0.40;0.40;;;;;;;13.10;59.40;101044.69;5021771;28;20052;-76
2022/04/12 11:30:29;;;;;;;0.50;0.50;;;;;;;13.35;68.22;101045.53;5024989;28;20082;-77
2022/04/12 11:33:02;;;;;;;0.40;0.40;;;;;;;13.25;61.26;101038.22;5020590;28;20064;-77
2022/04/12 11:35:37;;;;;;;0.40;0.40;;;;;;;13.26;61.35;101033.59;5025803;28;20059;-77
2022/04/12 11:38:07;;;;;;;0.60;0.50;;;;;;;13.21;65.43;101039.09;5024342;28;20417;-78
2022/04/12 11:40:43;;;;;;;0.90;0.40;;;;;;;13.40;63.78;101037.28;5022875;28;20045;-77
2022/04/12 11:43:24;;;;;;;0.38;0.38;;;;;;;13.51;63.64;101042.66;5019666;28;20054;-76
2022/04/12 11:45:58;;;;;;;0.38;0.38;;;;;;;13.44;58.57;101037.53;5005452;28;20072;-76
2022/04/12 11:48:33;;;;;;;0.40;0.40;;;;;;;13.41;58.26;101041.66;5022740;28;20071;-76
2022/04/12 11:51:06;;;;;;;0.40;0.40;;;;;;;13.34;63.13;101037.59;5024092;28;20052;-78
2022/04/12 11:53:49;;;;;;;0.75;0.52;;;;;;;13.25;63.36;101032.75;5022647;28;20061;-78
2022/04/12 11:56:22;;;;;;;0.40;0.40;;;;;;;13.10;62.80;101020.09;5031939;28;20048;-78
2022/04/12 11:58:55;;;;;;;0.50;0.50;;;;;;;13.12;64.98;101028.00;5026432;28;21378;-77
2022/04/12 12:01:32;;;;;;;0.43;0.40;;;;;;;13.26;66.31;101023.47;5023422;28;20045;-77
2022/04/12 12:04:06;;;;;;;0.50;0.50;;;;;;;13.39;69.09;101015.69;5031011;28;20053;-76
2022/04/12 12:06:53;;;;;;;0.70;0.40;;;;;;;13.60;62.54;101016.28;5022215;28;20057;-78
2022/04/12 12:09:28;;;;;;;0.60;0.60;;;;;;;13.75;60.11;101018.84;5026723;28;20386;-78
2022/04/12 12:12:05;;;;;;;0.63;0.50;;;;;;;13.58;59.32;101018.50;5021958;28;20048;-78